sensor_id;sensor_type;location;lat;lon;timestamp;temperature;humidity
25046;DHT22;13044;49.304;12.840;2023-12-04T00:00:33;-8.60;99.90
25046;DHT22;13044;49.304;12.840;2023-12-04T00:03:00;-8.60;99.90
25046;DHT22;13044;49.304;12.840;2023-12-04T00:05:26;-8.70;99.90
25046;DHT22;13044;49.304;12.840;2023-12-04T00:07:53;-8.80;99.90
25046;DHT22;13044;49.304;12.840;2023-12-04T00:10:21;-8.90;99.90
25046;DHT22;13044;49.304;12.840;2023-12-04T00:12:48;-9.00;99.90
25046;DHT22;13044;49.304;12.840;2023-12-04T00:15:15;-9.10;99.90
25046;DHT22;13044;49.304;12.840;2023-12-04T00:17:42;-9.10;99.90
25046;DHT22;13044;49.304;12.840;2023-12-04T00:20:09;-9.10;99.90
25046;DHT22;13044;49.304;12.840;2023-12-04T00:22:37;-9.10;99.90
25046;DHT22;13044;49.304;12.840;2023-12-04T00:25:06;-9.10;99.90
25046;DHT22;13044;49.304;12.840;2023-12-04T00:27:34;-9.20;99.90
25046;DHT22;13044;49.304;12.840;2023-12-04T00:30:00;-9.20;99.90
25046;DHT22;13044;49.304;12.840;2023-12-04T00:32:30;-9.30;99.90
25046;DHT22;13044;49.304;12.840;2023-12-04T00:34:57;-9.30;99.90
25046;DHT22;13044;49.304;12.840;2023-12-04T00:37:26;-9.40;99.90
25046;DHT22;13044;49.304;12.840;2023-12-04T00:39:53;-9.60;99.90
25046;DHT22;13044;49.304;12.840;2023-12-04T00:42:20;-9.70;99.90
25046;DHT22;13044;49.304;12.840;2023-12-04T00:44:48;-9.70;99.90
25046;DHT22;13044;49.304;12.840;2023-12-04T00:47:14;-9.80;99.90
25046;DHT22;13044;49.304;12.840;2023-12-04T00:49:41;-9.80;99.90
25046;DHT22;13044;49.304;12.840;2023-12-04T00:52:09;-9.80;99.90
25046;DHT22;13044;49.304;12.840;2023-12-04T00:54:39;-9.80;99.90
25046;DHT22;13044;49.304;12.840;2023-12-04T00:57:08;-9.80;99.90
25046;DHT22;13044;49.304;12.840;2023-12-04T00:59:35;-9.70;99.90
25046;DHT22;13044;49.304;12.840;2023-12-04T01:02:01;-9.70;99.90
25046;DHT22;13044;49.304;12.840;2023-12-04T01:04:28;-9.80;99.90
25046;DHT22;13044;49.304;12.840;2023-12-04T01:06:56;-9.70;99.90
25046;DHT22;13044;49.304;12.840;2023-12-04T01:09:23;-9.80;99.90
25046;DHT22;13044;49.304;12.840;2023-12-04T01:11:53;-9.80;99.90
25046;DHT22;13044;49.304;12.840;2023-12-04T01:14:21;-9.90;99.90
25046;DHT22;13044;49.304;12.840;2023-12-04T01:16:47;-9.90;99.90
25046;DHT22;13044;49.304;12.840;2023-12-04T01:19:14;-9.90;99.90
25046;DHT22;13044;49.304;12.840;2023-12-04T01:21:42;-9.90;99.90
25046;DHT22;13044;49.304;12.840;2023-12-04T01:24:09;-10.00;99.90
25046;DHT22;13044;49.304;12.840;2023-12-04T01:26:36;-10.00;99.90
25046;DHT22;13044;49.304;12.840;2023-12-04T01:29:03;-10.00;99.90
25046;DHT22;13044;49.304;12.840;2023-12-04T01:31:30;-10.00;99.90
25046;DHT22;13044;49.304;12.840;2023-12-04T01:33:57;-10.00;99.90
25046;DHT22;13044;49.304;12.840;2023-12-04T01:36:24;-10.00;99.90
25046;DHT22;13044;49.304;12.840;2023-12-04T01:38:51;-10.00;99.90
25046;DHT22;13044;49.304;12.840;2023-12-04T01:41:17;-10.10;99.90
25046;DHT22;13044;49.304;12.840;2023-12-04T01:43:45;-10.10;99.90
25046;DHT22;13044;49.304;12.840;2023-12-04T01:46:14;-10.10;99.90
25046;DHT22;13044;49.304;12.840;2023-12-04T01:48:43;-10.10;99.90
25046;DHT22;13044;49.304;12.840;2023-12-04T01:51:12;-10.30;99.90
25046;DHT22;13044;49.304;12.840;2023-12-04T01:53:39;-10.50;99.90
25046;DHT22;13044;49.304;12.840;2023-12-04T01:56:07;-10.50;99.90
25046;DHT22;13044;49.304;12.840;2023-12-04T01:58:35;-10.60;99.90
25046;DHT22;13044;49.304;12.840;2023-12-04T02:01:02;-10.80;99.90
25046;DHT22;13044;49.304;12.840;2023-12-04T02:03:29;-10.80;99.90
25046;DHT22;13044;49.304;12.840;2023-12-04T02:05:59;-10.80;99.90
25046;DHT22;13044;49.304;12.840;2023-12-04T02:08:29;-10.90;99.90
25046;DHT22;13044;49.304;12.840;2023-12-04T02:10:56;-11.00;99.90
25046;DHT22;13044;49.304;12.840;2023-12-04T02:13:23;-11.00;99.90
25046;DHT22;13044;49.304;12.840;2023-12-04T02:15:53;-11.00;99.90
25046;DHT22;13044;49.304;12.840;2023-12-04T02:18:21;-10.90;99.90
25046;DHT22;13044;49.304;12.840;2023-12-04T02:20:49;-10.90;99.90
25046;DHT22;13044;49.304;12.840;2023-12-04T02:23:15;-10.80;99.90
25046;DHT22;13044;49.304;12.840;2023-12-04T02:25:42;-10.90;99.90
25046;DHT22;13044;49.304;12.840;2023-12-04T02:28:12;-10.90;99.90
25046;DHT22;13044;49.304;12.840;2023-12-04T02:30:42;-10.90;99.90
25046;DHT22;13044;49.304;12.840;2023-12-04T02:33:11;-10.90;99.90
25046;DHT22;13044;49.304;12.840;2023-12-04T02:35:40;-10.90;99.90
25046;DHT22;13044;49.304;12.840;2023-12-04T02:38:09;-10.90;99.90
25046;DHT22;13044;49.304;12.840;2023-12-04T02:40:36;-11.00;99.90
25046;DHT22;13044;49.304;12.840;2023-12-04T02:43:03;-11.10;99.90
25046;DHT22;13044;49.304;12.840;2023-12-04T02:45:30;-11.00;99.90
25046;DHT22;13044;49.304;12.840;2023-12-04T02:47:57;-11.00;99.90
25046;DHT22;13044;49.304;12.840;2023-12-04T02:50:24;-11.00;99.90
25046;DHT22;13044;49.304;12.840;2023-12-04T02:52:51;-11.00;99.90
25046;DHT22;13044;49.304;12.840;2023-12-04T02:55:18;-11.00;99.90
25046;DHT22;13044;49.304;12.840;2023-12-04T02:57:44;-11.00;99.90
25046;DHT22;13044;49.304;12.840;2023-12-04T03:00:12;-10.90;99.90
25046;DHT22;13044;49.304;12.840;2023-12-04T03:02:39;-10.90;99.90
25046;DHT22;13044;49.304;12.840;2023-12-04T03:05:06;-10.90;99.90
25046;DHT22;13044;49.304;12.840;2023-12-04T03:07:33;-10.80;99.90
25046;DHT22;13044;49.304;12.840;2023-12-04T03:10:00;-10.70;99.90
25046;DHT22;13044;49.304;12.840;2023-12-04T03:12:27;-10.60;99.90
25046;DHT22;13044;49.304;12.840;2023-12-04T03:14:54;-10.60;99.90
25046;DHT22;13044;49.304;12.840;2023-12-04T03:17:21;-10.50;99.90
25046;DHT22;13044;49.304;12.840;2023-12-04T03:19:48;-10.50;99.90
25046;DHT22;13044;49.304;12.840;2023-12-04T03:22:17;-10.50;99.90
25046;DHT22;13044;49.304;12.840;2023-12-04T03:24:44;-10.40;99.90
25046;DHT22;13044;49.304;12.840;2023-12-04T03:27:11;-10.40;99.90
25046;DHT22;13044;49.304;12.840;2023-12-04T03:29:38;-10.40;99.90
25046;DHT22;13044;49.304;12.840;2023-12-04T03:32:05;-10.30;99.90
25046;DHT22;13044;49.304;12.840;2023-12-04T03:34:32;-10.30;99.90
25046;DHT22;13044;49.304;12.840;2023-12-04T03:36:59;-10.20;99.90
25046;DHT22;13044;49.304;12.840;2023-12-04T03:39:26;-10.20;99.90
25046;DHT22;13044;49.304;12.840;2023-12-04T03:41:53;-10.20;99.90
25046;DHT22;13044;49.304;12.840;2023-12-04T03:44:20;-10.30;99.90
25046;DHT22;13044;49.304;12.840;2023-12-04T03:46:46;-10.40;99.90
25046;DHT22;13044;49.304;12.840;2023-12-04T03:49:13;-10.40;99.90
25046;DHT22;13044;49.304;12.840;2023-12-04T03:51:40;-10.50;99.90
25046;DHT22;13044;49.304;12.840;2023-12-04T03:54:07;-10.50;99.90
25046;DHT22;13044;49.304;12.840;2023-12-04T03:56:34;-10.50;99.90
25046;DHT22;13044;49.304;12.840;2023-12-04T03:59:01;-10.50;99.90
25046;DHT22;13044;49.304;12.840;2023-12-04T04:01:28;-10.50;99.90
25046;DHT22;13044;49.304;12.840;2023-12-04T04:03:56;-10.40;99.90
25046;DHT22;13044;49.304;12.840;2023-12-04T04:06:22;-10.40;99.90
25046;DHT22;13044;49.304;12.840;2023-12-04T04:08:50;-10.40;99.90
25046;DHT22;13044;49.304;12.840;2023-12-04T04:11:17;-10.30;99.90
25046;DHT22;13044;49.304;12.840;2023-12-04T04:13:43;-10.30;99.90
25046;DHT22;13044;49.304;12.840;2023-12-04T04:16:16;-10.40;99.90
25046;DHT22;13044;49.304;12.840;2023-12-04T04:18:43;-10.40;99.90
25046;DHT22;13044;49.304;12.840;2023-12-04T04:21:10;-10.40;99.90
25046;DHT22;13044;49.304;12.840;2023-12-04T04:23:37;-10.40;99.90
25046;DHT22;13044;49.304;12.840;2023-12-04T04:26:04;-10.40;99.90
25046;DHT22;13044;49.304;12.840;2023-12-04T04:28:31;-10.40;99.90
25046;DHT22;13044;49.304;12.840;2023-12-04T04:30:58;-10.30;99.90
25046;DHT22;13044;49.304;12.840;2023-12-04T04:33:25;-10.30;99.90
25046;DHT22;13044;49.304;12.840;2023-12-04T04:35:53;-10.20;99.90
25046;DHT22;13044;49.304;12.840;2023-12-04T04:38:20;-10.10;99.90
25046;DHT22;13044;49.304;12.840;2023-12-04T04:40:47;-10.10;99.90
25046;DHT22;13044;49.304;12.840;2023-12-04T04:43:14;-10.10;99.90
25046;DHT22;13044;49.304;12.840;2023-12-04T04:45:41;-10.10;99.90
25046;DHT22;13044;49.304;12.840;2023-12-04T04:48:08;-10.20;99.90
25046;DHT22;13044;49.304;12.840;2023-12-04T04:50:35;-10.30;99.90
25046;DHT22;13044;49.304;12.840;2023-12-04T04:53:02;-10.50;99.90
25046;DHT22;13044;49.304;12.840;2023-12-04T04:55:29;-10.60;99.90
25046;DHT22;13044;49.304;12.840;2023-12-04T04:58:15;-10.70;99.90
25046;DHT22;13044;49.304;12.840;2023-12-04T05:00:43;-10.70;99.90
25046;DHT22;13044;49.304;12.840;2023-12-04T05:03:10;-10.70;99.90
25046;DHT22;13044;49.304;12.840;2023-12-04T05:05:37;-10.60;99.90
25046;DHT22;13044;49.304;12.840;2023-12-04T05:08:04;-10.60;99.90
25046;DHT22;13044;49.304;12.840;2023-12-04T05:10:31;-10.70;99.90
25046;DHT22;13044;49.304;12.840;2023-12-04T05:12:58;-10.60;99.90
25046;DHT22;13044;49.304;12.840;2023-12-04T05:15:25;-10.50;99.90
25046;DHT22;13044;49.304;12.840;2023-12-04T05:17:53;-10.50;99.90
25046;DHT22;13044;49.304;12.840;2023-12-04T05:20:20;-10.40;99.90
25046;DHT22;13044;49.304;12.840;2023-12-04T05:22:47;-10.40;99.90
25046;DHT22;13044;49.304;12.840;2023-12-04T05:25:15;-10.40;99.90
25046;DHT22;13044;49.304;12.840;2023-12-04T05:27:42;-10.40;99.90
25046;DHT22;13044;49.304;12.840;2023-12-04T05:30:10;-10.40;99.90
25046;DHT22;13044;49.304;12.840;2023-12-04T05:32:37;-10.50;99.90
25046;DHT22;13044;49.304;12.840;2023-12-04T05:35:04;-10.50;99.90
25046;DHT22;13044;49.304;12.840;2023-12-04T05:37:31;-10.40;99.90
25046;DHT22;13044;49.304;12.840;2023-12-04T05:39:58;-10.40;99.90
25046;DHT22;13044;49.304;12.840;2023-12-04T05:42:25;-10.50;99.90
25046;DHT22;13044;49.304;12.840;2023-12-04T05:44:52;-10.40;99.90
25046;DHT22;13044;49.304;12.840;2023-12-04T05:47:22;-10.40;99.90
25046;DHT22;13044;49.304;12.840;2023-12-04T05:49:49;-10.30;99.90
25046;DHT22;13044;49.304;12.840;2023-12-04T05:52:16;-10.30;99.90
25046;DHT22;13044;49.304;12.840;2023-12-04T05:54:42;-10.30;99.90
25046;DHT22;13044;49.304;12.840;2023-12-04T05:57:09;-10.40;99.90
25046;DHT22;13044;49.304;12.840;2023-12-04T05:59:36;-10.50;99.90
25046;DHT22;13044;49.304;12.840;2023-12-04T06:02:03;-10.50;99.90
25046;DHT22;13044;49.304;12.840;2023-12-04T06:04:30;-10.70;99.90
25046;DHT22;13044;49.304;12.840;2023-12-04T06:06:57;-10.60;99.90
25046;DHT22;13044;49.304;12.840;2023-12-04T06:09:24;-10.60;99.90
25046;DHT22;13044;49.304;12.840;2023-12-04T06:11:51;-10.50;99.90
25046;DHT22;13044;49.304;12.840;2023-12-04T06:14:18;-10.50;99.90
25046;DHT22;13044;49.304;12.840;2023-12-04T06:16:45;-10.50;99.90
25046;DHT22;13044;49.304;12.840;2023-12-04T06:19:12;-10.40;99.90
25046;DHT22;13044;49.304;12.840;2023-12-04T06:21:39;-10.40;99.90
25046;DHT22;13044;49.304;12.840;2023-12-04T06:24:06;-10.40;99.90
25046;DHT22;13044;49.304;12.840;2023-12-04T06:26:36;-10.40;99.90
25046;DHT22;13044;49.304;12.840;2023-12-04T06:29:07;-10.30;99.90
25046;DHT22;13044;49.304;12.840;2023-12-04T06:31:34;-10.30;99.90
25046;DHT22;13044;49.304;12.840;2023-12-04T06:34:01;-10.30;99.90
25046;DHT22;13044;49.304;12.840;2023-12-04T06:36:31;-10.30;99.90
25046;DHT22;13044;49.304;12.840;2023-12-04T06:39:02;-10.20;99.90
25046;DHT22;13044;49.304;12.840;2023-12-04T06:41:31;-10.20;99.90
25046;DHT22;13044;49.304;12.840;2023-12-04T06:43:58;-10.20;99.90
25046;DHT22;13044;49.304;12.840;2023-12-04T06:46:27;-10.20;99.90
25046;DHT22;13044;49.304;12.840;2023-12-04T06:48:57;-10.10;99.90
25046;DHT22;13044;49.304;12.840;2023-12-04T06:51:26;-10.10;99.90
25046;DHT22;13044;49.304;12.840;2023-12-04T06:53:53;-10.00;99.90
25046;DHT22;13044;49.304;12.840;2023-12-04T06:56:20;-9.90;99.90
25046;DHT22;13044;49.304;12.840;2023-12-04T06:58:46;-9.90;99.90
25046;DHT22;13044;49.304;12.840;2023-12-04T07:01:13;-9.80;99.90
25046;DHT22;13044;49.304;12.840;2023-12-04T07:03:40;-9.80;99.90
25046;DHT22;13044;49.304;12.840;2023-12-04T07:06:08;-9.90;99.90
25046;DHT22;13044;49.304;12.840;2023-12-04T07:08:35;-9.90;99.90
25046;DHT22;13044;49.304;12.840;2023-12-04T07:11:02;-9.80;99.90
25046;DHT22;13044;49.304;12.840;2023-12-04T07:13:29;-9.70;99.90
25046;DHT22;13044;49.304;12.840;2023-12-04T07:15:56;-9.70;99.90
25046;DHT22;13044;49.304;12.840;2023-12-04T07:18:26;-9.60;99.90
25046;DHT22;13044;49.304;12.840;2023-12-04T07:20:53;-9.50;99.90
25046;DHT22;13044;49.304;12.840;2023-12-04T07:23:20;-9.50;99.90
25046;DHT22;13044;49.304;12.840;2023-12-04T07:25:50;-9.50;99.90
25046;DHT22;13044;49.304;12.840;2023-12-04T07:28:18;-9.50;99.90
25046;DHT22;13044;49.304;12.840;2023-12-04T07:30:46;-9.50;99.90
25046;DHT22;13044;49.304;12.840;2023-12-04T07:33:13;-9.50;99.90
25046;DHT22;13044;49.304;12.840;2023-12-04T07:35:40;-9.40;99.90
25046;DHT22;13044;49.304;12.840;2023-12-04T07:38:07;-9.30;99.90
25046;DHT22;13044;49.304;12.840;2023-12-04T07:40:34;-9.20;99.90
25046;DHT22;13044;49.304;12.840;2023-12-04T07:43:01;-9.10;99.90
25046;DHT22;13044;49.304;12.840;2023-12-04T07:45:28;-8.90;99.90
25046;DHT22;13044;49.304;12.840;2023-12-04T07:47:55;-8.80;99.90
25046;DHT22;13044;49.304;12.840;2023-12-04T07:50:23;-8.80;99.90
25046;DHT22;13044;49.304;12.840;2023-12-04T07:52:51;-8.70;99.90
25046;DHT22;13044;49.304;12.840;2023-12-04T07:55:18;-8.60;99.90
25046;DHT22;13044;49.304;12.840;2023-12-04T07:57:44;-8.50;99.90
25046;DHT22;13044;49.304;12.840;2023-12-04T08:00:12;-8.40;99.90
25046;DHT22;13044;49.304;12.840;2023-12-04T08:02:39;-8.30;99.90
25046;DHT22;13044;49.304;12.840;2023-12-04T08:05:06;-8.20;99.90
25046;DHT22;13044;49.304;12.840;2023-12-04T08:07:36;-8.10;99.90
25046;DHT22;13044;49.304;12.840;2023-12-04T08:10:03;-8.00;99.90
25046;DHT22;13044;49.304;12.840;2023-12-04T08:12:30;-7.90;99.90
25046;DHT22;13044;49.304;12.840;2023-12-04T08:14:57;-7.90;99.90
25046;DHT22;13044;49.304;12.840;2023-12-04T08:17:24;-7.80;99.90
25046;DHT22;13044;49.304;12.840;2023-12-04T08:19:51;-7.70;99.90
25046;DHT22;13044;49.304;12.840;2023-12-04T08:22:19;-7.70;99.90
25046;DHT22;13044;49.304;12.840;2023-12-04T08:24:46;-7.80;99.90
25046;DHT22;13044;49.304;12.840;2023-12-04T08:27:13;-7.90;99.90
25046;DHT22;13044;49.304;12.840;2023-12-04T08:29:40;-8.20;99.90
25046;DHT22;13044;49.304;12.840;2023-12-04T08:32:07;-8.00;99.90
25046;DHT22;13044;49.304;12.840;2023-12-04T08:34:34;-7.90;99.90
25046;DHT22;13044;49.304;12.840;2023-12-04T08:37:03;-7.80;99.90
25046;DHT22;13044;49.304;12.840;2023-12-04T08:39:30;-7.80;99.90
25046;DHT22;13044;49.304;12.840;2023-12-04T08:41:57;-7.70;99.90
25046;DHT22;13044;49.304;12.840;2023-12-04T08:44:30;-7.60;99.90
25046;DHT22;13044;49.304;12.840;2023-12-04T08:46:57;-7.70;99.90
25046;DHT22;13044;49.304;12.840;2023-12-04T08:49:24;-7.50;99.90
25046;DHT22;13044;49.304;12.840;2023-12-04T08:52:05;-7.30;99.90
25046;DHT22;13044;49.304;12.840;2023-12-04T08:54:32;-7.00;99.90
25046;DHT22;13044;49.304;12.840;2023-12-04T08:57:00;-6.80;99.90
25046;DHT22;13044;49.304;12.840;2023-12-04T08:59:29;-6.50;99.90
25046;DHT22;13044;49.304;12.840;2023-12-04T09:01:56;-6.50;99.90
25046;DHT22;13044;49.304;12.840;2023-12-04T09:04:24;-6.40;99.90
25046;DHT22;13044;49.304;12.840;2023-12-04T09:06:52;-6.20;99.90
25046;DHT22;13044;49.304;12.840;2023-12-04T09:09:21;-6.10;99.90
25046;DHT22;13044;49.304;12.840;2023-12-04T09:11:49;-6.20;99.90
25046;DHT22;13044;49.304;12.840;2023-12-04T09:14:15;-6.20;99.90
25046;DHT22;13044;49.304;12.840;2023-12-04T09:16:42;-6.10;99.90
25046;DHT22;13044;49.304;12.840;2023-12-04T09:19:09;-5.90;99.90
25046;DHT22;13044;49.304;12.840;2023-12-04T09:21:37;-5.70;99.90
25046;DHT22;13044;49.304;12.840;2023-12-04T09:24:04;-5.40;99.90
25046;DHT22;13044;49.304;12.840;2023-12-04T09:26:31;-5.20;99.90
25046;DHT22;13044;49.304;12.840;2023-12-04T09:28:58;-5.10;99.90
25046;DHT22;13044;49.304;12.840;2023-12-04T09:31:25;-4.90;99.90
25046;DHT22;13044;49.304;12.840;2023-12-04T09:33:52;-4.90;99.90
25046;DHT22;13044;49.304;12.840;2023-12-04T09:36:19;-4.80;99.90
25046;DHT22;13044;49.304;12.840;2023-12-04T09:42:46;-4.60;99.90
25046;DHT22;13044;49.304;12.840;2023-12-04T09:45:13;-4.70;99.90
25046;DHT22;13044;49.304;12.840;2023-12-04T09:47:42;-4.70;99.90
25046;DHT22;13044;49.304;12.840;2023-12-04T09:50:10;-4.70;99.90
25046;DHT22;13044;49.304;12.840;2023-12-04T09:52:37;-4.70;99.90
25046;DHT22;13044;49.304;12.840;2023-12-04T09:55:04;-4.70;99.90
25046;DHT22;13044;49.304;12.840;2023-12-04T09:57:32;-4.60;99.90
25046;DHT22;13044;49.304;12.840;2023-12-04T10:00:00;-4.60;99.90
25046;DHT22;13044;49.304;12.840;2023-12-04T10:02:30;-4.70;99.90
25046;DHT22;13044;49.304;12.840;2023-12-04T10:04:58;-4.60;99.90
25046;DHT22;13044;49.304;12.840;2023-12-04T10:07:25;-4.60;99.90
25046;DHT22;13044;49.304;12.840;2023-12-04T10:09:52;-4.80;99.90
25046;DHT22;13044;49.304;12.840;2023-12-04T10:12:19;-4.80;99.90
25046;DHT22;13044;49.304;12.840;2023-12-04T10:15:07;-4.80;99.90
25046;DHT22;13044;49.304;12.840;2023-12-04T10:17:40;-4.90;99.90
25046;DHT22;13044;49.304;12.840;2023-12-04T10:20:13;-4.90;99.90
25046;DHT22;13044;49.304;12.840;2023-12-04T10:22:57;-4.90;99.90
25046;DHT22;13044;49.304;12.840;2023-12-04T10:25:29;-5.00;99.90
25046;DHT22;13044;49.304;12.840;2023-12-04T10:28:11;-4.90;99.90
25046;DHT22;13044;49.304;12.840;2023-12-04T10:30:39;-4.90;99.90
25046;DHT22;13044;49.304;12.840;2023-12-04T10:33:07;-4.80;99.90
25046;DHT22;13044;49.304;12.840;2023-12-04T10:35:36;-4.60;99.90
25046;DHT22;13044;49.304;12.840;2023-12-04T10:38:06;-4.40;99.90
25046;DHT22;13044;49.304;12.840;2023-12-04T10:40:35;-4.20;99.90
25046;DHT22;13044;49.304;12.840;2023-12-04T10:45:37;-3.90;99.90
25046;DHT22;13044;49.304;12.840;2023-12-04T10:48:05;-3.90;99.90
25046;DHT22;13044;49.304;12.840;2023-12-04T10:50:47;-3.90;99.90
25046;DHT22;13044;49.304;12.840;2023-12-04T10:53:16;-3.90;99.90
25046;DHT22;13044;49.304;12.840;2023-12-04T10:55:45;-3.90;99.90
25046;DHT22;13044;49.304;12.840;2023-12-04T10:58:14;-4.00;99.90
25046;DHT22;13044;49.304;12.840;2023-12-04T11:00:44;-4.00;99.90
25046;DHT22;13044;49.304;12.840;2023-12-04T11:03:21;-4.00;99.90
25046;DHT22;13044;49.304;12.840;2023-12-04T11:05:56;-3.90;99.90
25046;DHT22;13044;49.304;12.840;2023-12-04T11:08:29;-4.00;99.90
25046;DHT22;13044;49.304;12.840;2023-12-04T11:11:02;-4.00;99.90
25046;DHT22;13044;49.304;12.840;2023-12-04T11:13:32;-4.00;99.90
25046;DHT22;13044;49.304;12.840;2023-12-04T11:16:04;-4.00;99.90
25046;DHT22;13044;49.304;12.840;2023-12-04T11:18:36;-3.90;99.90
25046;DHT22;13044;49.304;12.840;2023-12-04T11:21:10;-3.90;99.90
25046;DHT22;13044;49.304;12.840;2023-12-04T11:23:38;-3.80;99.90
25046;DHT22;13044;49.304;12.840;2023-12-04T11:26:07;-3.70;99.90
25046;DHT22;13044;49.304;12.840;2023-12-04T11:28:36;-3.70;99.90
25046;DHT22;13044;49.304;12.840;2023-12-04T11:31:05;-3.50;99.90
25046;DHT22;13044;49.304;12.840;2023-12-04T11:33:36;-3.40;99.90
25046;DHT22;13044;49.304;12.840;2023-12-04T11:36:09;-3.30;99.90
25046;DHT22;13044;49.304;12.840;2023-12-04T11:38:44;-3.10;99.90
25046;DHT22;13044;49.304;12.840;2023-12-04T11:43:50;-2.60;99.90
25046;DHT22;13044;49.304;12.840;2023-12-04T11:46:23;-2.40;99.90
25046;DHT22;13044;49.304;12.840;2023-12-04T11:48:56;-2.40;99.90
25046;DHT22;13044;49.304;12.840;2023-12-04T11:54:10;-3.10;99.90
25046;DHT22;13044;49.304;12.840;2023-12-04T11:56:55;-3.30;99.90
25046;DHT22;13044;49.304;12.840;2023-12-04T11:59:24;-3.30;99.90
25046;DHT22;13044;49.304;12.840;2023-12-04T12:01:52;-3.30;99.90
25046;DHT22;13044;49.304;12.840;2023-12-04T12:04:20;-3.40;99.90
25046;DHT22;13044;49.304;12.840;2023-12-04T12:06:48;-3.40;99.90
25046;DHT22;13044;49.304;12.840;2023-12-04T12:09:16;-3.50;99.90
25046;DHT22;13044;49.304;12.840;2023-12-04T12:11:44;-3.60;99.90
25046;DHT22;13044;49.304;12.840;2023-12-04T12:14:11;-3.70;99.90
25046;DHT22;13044;49.304;12.840;2023-12-04T12:16:38;-3.70;99.90
25046;DHT22;13044;49.304;12.840;2023-12-04T12:19:05;-3.70;99.90
25046;DHT22;13044;49.304;12.840;2023-12-04T12:21:32;-3.90;99.90
25046;DHT22;13044;49.304;12.840;2023-12-04T12:24:00;-3.90;99.90
25046;DHT22;13044;49.304;12.840;2023-12-04T12:26:28;-3.90;99.90
25046;DHT22;13044;49.304;12.840;2023-12-04T12:28:56;-3.90;99.90
25046;DHT22;13044;49.304;12.840;2023-12-04T12:31:23;-4.00;99.90
25046;DHT22;13044;49.304;12.840;2023-12-04T12:33:50;-4.00;99.90
25046;DHT22;13044;49.304;12.840;2023-12-04T12:36:18;-4.10;99.90
25046;DHT22;13044;49.304;12.840;2023-12-04T12:38:45;-4.10;99.90
25046;DHT22;13044;49.304;12.840;2023-12-04T12:41:17;-4.20;99.90
25046;DHT22;13044;49.304;12.840;2023-12-04T12:43:44;-4.20;99.90
25046;DHT22;13044;49.304;12.840;2023-12-04T12:46:11;-4.30;99.90
25046;DHT22;13044;49.304;12.840;2023-12-04T12:48:38;-4.30;99.90
25046;DHT22;13044;49.304;12.840;2023-12-04T12:51:05;-4.30;99.90
25046;DHT22;13044;49.304;12.840;2023-12-04T12:53:34;-4.30;99.90
25046;DHT22;13044;49.304;12.840;2023-12-04T12:56:01;-4.30;99.90
25046;DHT22;13044;49.304;12.840;2023-12-04T12:58:29;-4.30;99.90
25046;DHT22;13044;49.304;12.840;2023-12-04T13:00:56;-4.40;99.90
25046;DHT22;13044;49.304;12.840;2023-12-04T13:03:23;-4.40;99.90
25046;DHT22;13044;49.304;12.840;2023-12-04T13:05:50;-4.50;99.90
25046;DHT22;13044;49.304;12.840;2023-12-04T13:08:17;-4.50;99.90
25046;DHT22;13044;49.304;12.840;2023-12-04T13:10:44;-4.50;99.90
25046;DHT22;13044;49.304;12.840;2023-12-04T13:13:12;-4.40;99.90
25046;DHT22;13044;49.304;12.840;2023-12-04T13:15:40;-4.40;99.90
25046;DHT22;13044;49.304;12.840;2023-12-04T13:18:09;-4.40;99.90
25046;DHT22;13044;49.304;12.840;2023-12-04T13:20:36;-4.40;99.90
25046;DHT22;13044;49.304;12.840;2023-12-04T13:23:03;-4.40;99.90
25046;DHT22;13044;49.304;12.840;2023-12-04T13:25:30;-4.40;99.90
25046;DHT22;13044;49.304;12.840;2023-12-04T13:27:57;-4.50;99.90
25046;DHT22;13044;49.304;12.840;2023-12-04T13:30:24;-4.40;99.90
25046;DHT22;13044;49.304;12.840;2023-12-04T13:32:51;-4.40;99.90
25046;DHT22;13044;49.304;12.840;2023-12-04T13:35:18;-4.40;99.90
25046;DHT22;13044;49.304;12.840;2023-12-04T13:37:45;-4.40;99.90
25046;DHT22;13044;49.304;12.840;2023-12-04T13:40:13;-4.40;99.90
25046;DHT22;13044;49.304;12.840;2023-12-04T13:42:43;-4.50;99.90
25046;DHT22;13044;49.304;12.840;2023-12-04T13:45:28;-4.40;99.90
25046;DHT22;13044;49.304;12.840;2023-12-04T13:47:55;-4.40;99.90
25046;DHT22;13044;49.304;12.840;2023-12-04T13:50:23;-4.40;99.90
25046;DHT22;13044;49.304;12.840;2023-12-04T13:52:50;-4.30;99.90
25046;DHT22;13044;49.304;12.840;2023-12-04T13:55:24;-4.30;99.90
25046;DHT22;13044;49.304;12.840;2023-12-04T13:58:09;-4.30;99.90
25046;DHT22;13044;49.304;12.840;2023-12-04T14:00:44;-4.40;99.90
25046;DHT22;13044;49.304;12.840;2023-12-04T14:03:10;-4.40;99.90
25046;DHT22;13044;49.304;12.840;2023-12-04T14:05:38;-4.40;99.90
25046;DHT22;13044;49.304;12.840;2023-12-04T14:08:05;-4.40;99.90
25046;DHT22;13044;49.304;12.840;2023-12-04T14:10:33;-4.40;99.90
25046;DHT22;13044;49.304;12.840;2023-12-04T14:13:01;-4.40;99.90
25046;DHT22;13044;49.304;12.840;2023-12-04T14:15:28;-4.50;99.90
25046;DHT22;13044;49.304;12.840;2023-12-04T14:17:54;-4.50;99.90
25046;DHT22;13044;49.304;12.840;2023-12-04T14:20:22;-4.50;99.90
25046;DHT22;13044;49.304;12.840;2023-12-04T14:22:49;-4.50;99.90
25046;DHT22;13044;49.304;12.840;2023-12-04T14:25:16;-4.50;99.90
25046;DHT22;13044;49.304;12.840;2023-12-04T14:27:42;-4.50;99.90
25046;DHT22;13044;49.304;12.840;2023-12-04T14:30:11;-4.50;99.90
25046;DHT22;13044;49.304;12.840;2023-12-04T14:32:38;-4.50;99.90
25046;DHT22;13044;49.304;12.840;2023-12-04T14:35:14;-4.50;99.90
25046;DHT22;13044;49.304;12.840;2023-12-04T14:37:41;-4.60;99.90
25046;DHT22;13044;49.304;12.840;2023-12-04T14:40:08;-4.60;99.90
25046;DHT22;13044;49.304;12.840;2023-12-04T14:42:38;-4.60;99.90
25046;DHT22;13044;49.304;12.840;2023-12-04T14:45:05;-4.70;99.90
25046;DHT22;13044;49.304;12.840;2023-12-04T14:47:33;-4.70;99.90
25046;DHT22;13044;49.304;12.840;2023-12-04T14:50:00;-4.70;99.90
25046;DHT22;13044;49.304;12.840;2023-12-04T14:52:27;-4.70;99.90
25046;DHT22;13044;49.304;12.840;2023-12-04T14:54:55;-4.80;99.90
25046;DHT22;13044;49.304;12.840;2023-12-04T14:57:25;-4.80;99.90
25046;DHT22;13044;49.304;12.840;2023-12-04T14:59:55;-4.80;99.90
25046;DHT22;13044;49.304;12.840;2023-12-04T15:02:33;-4.80;99.90
25046;DHT22;13044;49.304;12.840;2023-12-04T15:05:06;-4.80;99.90
25046;DHT22;13044;49.304;12.840;2023-12-04T15:07:36;-4.80;99.90
25046;DHT22;13044;49.304;12.840;2023-12-04T15:10:22;-4.90;99.90
25046;DHT22;13044;49.304;12.840;2023-12-04T15:13:14;-4.90;99.90
25046;DHT22;13044;49.304;12.840;2023-12-04T15:15:56;-4.90;99.90
25046;DHT22;13044;49.304;12.840;2023-12-04T15:18:41;-4.90;99.90
25046;DHT22;13044;49.304;12.840;2023-12-04T15:21:11;-4.90;99.90
25046;DHT22;13044;49.304;12.840;2023-12-04T15:23:38;-4.80;99.90
25046;DHT22;13044;49.304;12.840;2023-12-04T15:26:05;-4.80;99.90
25046;DHT22;13044;49.304;12.840;2023-12-04T15:28:32;-4.90;99.90